sensor_id;sensor_type;location;lat;lon;timestamp;temperature;humidity
28767;DHT22;15921;52.034;20.650;2022-11-04T00:01:58;7.40;99.90
28767;DHT22;15921;52.034;20.650;2022-11-04T00:04:26;7.40;99.90
28767;DHT22;15921;52.034;20.650;2022-11-04T00:06:52;7.40;99.90
28767;DHT22;15921;52.034;20.650;2022-11-04T00:09:21;7.50;99.90
28767;DHT22;15921;52.034;20.650;2022-11-04T00:11:48;7.60;99.90
28767;DHT22;15921;52.034;20.650;2022-11-04T00:14:33;7.60;99.90
28767;DHT22;15921;52.034;20.650;2022-11-04T00:16:59;7.60;99.90
28767;DHT22;15921;52.034;20.650;2022-11-04T00:19:45;7.70;99.90
28767;DHT22;15921;52.034;20.650;2022-11-04T00:22:29;7.80;99.90
28767;DHT22;15921;52.034;20.650;2022-11-04T00:25:14;7.80;99.90
28767;DHT22;15921;52.034;20.650;2022-11-04T00:28:12;7.80;99.90
28767;DHT22;15921;52.034;20.650;2022-11-04T00:30:58;7.90;99.90
28767;DHT22;15921;52.034;20.650;2022-11-04T00:33:45;7.80;99.90
28767;DHT22;15921;52.034;20.650;2022-11-04T00:36:11;7.90;99.90
28767;DHT22;15921;52.034;20.650;2022-11-04T00:38:36;7.90;99.90
28767;DHT22;15921;52.034;20.650;2022-11-04T00:41:02;7.90;99.90
28767;DHT22;15921;52.034;20.650;2022-11-04T00:43:48;7.90;99.90
28767;DHT22;15921;52.034;20.650;2022-11-04T00:46:13;7.90;99.90
28767;DHT22;15921;52.034;20.650;2022-11-04T00:48:39;7.90;99.90
28767;DHT22;15921;52.034;20.650;2022-11-04T00:51:05;7.90;99.90
28767;DHT22;15921;52.034;20.650;2022-11-04T00:53:30;7.90;99.90
28767;DHT22;15921;52.034;20.650;2022-11-04T00:55:58;7.90;99.90
28767;DHT22;15921;52.034;20.650;2022-11-04T00:58:24;7.90;99.90
28767;DHT22;15921;52.034;20.650;2022-11-04T01:00:50;7.80;99.90
28767;DHT22;15921;52.034;20.650;2022-11-04T01:03:15;7.90;99.90
28767;DHT22;15921;52.034;20.650;2022-11-04T01:05:41;7.80;99.90
28767;DHT22;15921;52.034;20.650;2022-11-04T01:08:07;7.90;99.90
28767;DHT22;15921;52.034;20.650;2022-11-04T01:10:34;7.90;99.90
28767;DHT22;15921;52.034;20.650;2022-11-04T01:13:01;7.90;99.90
28767;DHT22;15921;52.034;20.650;2022-11-04T01:15:26;7.90;99.90
28767;DHT22;15921;52.034;20.650;2022-11-04T01:17:52;7.90;99.90
28767;DHT22;15921;52.034;20.650;2022-11-04T01:20:18;7.90;99.90
28767;DHT22;15921;52.034;20.650;2022-11-04T01:22:43;8.00;99.90
28767;DHT22;15921;52.034;20.650;2022-11-04T01:25:09;8.00;99.90
28767;DHT22;15921;52.034;20.650;2022-11-04T01:27:35;7.90;99.90
28767;DHT22;15921;52.034;20.650;2022-11-04T01:30:00;7.90;99.90
28767;DHT22;15921;52.034;20.650;2022-11-04T01:32:27;7.90;99.90
28767;DHT22;15921;52.034;20.650;2022-11-04T01:34:52;7.90;99.90
28767;DHT22;15921;52.034;20.650;2022-11-04T01:37:18;7.90;99.90
28767;DHT22;15921;52.034;20.650;2022-11-04T01:39:44;7.90;99.90
28767;DHT22;15921;52.034;20.650;2022-11-04T01:42:12;7.90;99.90
28767;DHT22;15921;52.034;20.650;2022-11-04T01:44:48;7.90;99.90
28767;DHT22;15921;52.034;20.650;2022-11-04T01:47:21;7.80;99.90
28767;DHT22;15921;52.034;20.650;2022-11-04T01:50:13;7.80;99.90
28767;DHT22;15921;52.034;20.650;2022-11-04T01:55:28;7.60;99.90
28767;DHT22;15921;52.034;20.650;2022-11-04T01:57:59;7.60;99.90
28767;DHT22;15921;52.034;20.650;2022-11-04T02:00:26;7.50;99.90
28767;DHT22;15921;52.034;20.650;2022-11-04T02:03:10;7.50;99.90
28767;DHT22;15921;52.034;20.650;2022-11-04T02:05:37;7.50;99.90
28767;DHT22;15921;52.034;20.650;2022-11-04T02:08:05;7.40;99.90
28767;DHT22;15921;52.034;20.650;2022-11-04T02:10:31;7.40;99.90
28767;DHT22;15921;52.034;20.650;2022-11-04T02:13:00;7.40;99.90
28767;DHT22;15921;52.034;20.650;2022-11-04T02:35:35;7.50;99.90
28767;DHT22;15921;52.034;20.650;2022-11-04T02:41:00;7.40;99.90
28767;DHT22;15921;52.034;20.650;2022-11-04T02:43:49;7.40;99.90
28767;DHT22;15921;52.034;20.650;2022-11-04T02:49:08;7.50;99.90
28767;DHT22;15921;52.034;20.650;2022-11-04T02:54:14;7.50;99.90
28767;DHT22;15921;52.034;20.650;2022-11-04T02:56:45;7.50;99.90
28767;DHT22;15921;52.034;20.650;2022-11-04T03:01:53;7.60;99.90
28767;DHT22;15921;52.034;20.650;2022-11-04T03:04:25;7.50;99.90
28767;DHT22;15921;52.034;20.650;2022-11-04T03:06:54;7.60;99.90
28767;DHT22;15921;52.034;20.650;2022-11-04T03:09:22;7.60;99.90
28767;DHT22;15921;52.034;20.650;2022-11-04T03:11:54;7.60;99.90
28767;DHT22;15921;52.034;20.650;2022-11-04T03:14:25;7.70;99.90
28767;DHT22;15921;52.034;20.650;2022-11-04T03:16:58;7.70;99.90
28767;DHT22;15921;52.034;20.650;2022-11-04T03:19:37;7.70;99.90
28767;DHT22;15921;52.034;20.650;2022-11-04T03:22:08;7.70;99.90
28767;DHT22;15921;52.034;20.650;2022-11-04T03:24:34;7.70;99.90
28767;DHT22;15921;52.034;20.650;2022-11-04T03:34:46;7.60;99.90
28767;DHT22;15921;52.034;20.650;2022-11-04T03:37:12;7.70;99.90
28767;DHT22;15921;52.034;20.650;2022-11-04T03:39:38;7.70;99.90
28767;DHT22;15921;52.034;20.650;2022-11-04T03:42:07;7.70;99.90
28767;DHT22;15921;52.034;20.650;2022-11-04T03:45:10;7.60;99.90
28767;DHT22;15921;52.034;20.650;2022-11-04T03:47:37;7.70;99.90
28767;DHT22;15921;52.034;20.650;2022-11-04T03:50:26;7.70;99.90
28767;DHT22;15921;52.034;20.650;2022-11-04T03:52:53;7.70;99.90
28767;DHT22;15921;52.034;20.650;2022-11-04T03:55:19;7.70;99.90
28767;DHT22;15921;52.034;20.650;2022-11-04T03:57:59;7.70;99.90
28767;DHT22;15921;52.034;20.650;2022-11-04T04:00:32;7.80;99.90
28767;DHT22;15921;52.034;20.650;2022-11-04T04:03:06;7.70;99.90
28767;DHT22;15921;52.034;20.650;2022-11-04T04:08:39;7.70;99.90
28767;DHT22;15921;52.034;20.650;2022-11-04T04:17:04;7.70;99.90
28767;DHT22;15921;52.034;20.650;2022-11-04T04:19:32;7.70;99.90
28767;DHT22;15921;52.034;20.650;2022-11-04T04:22:02;7.70;99.90
28767;DHT22;15921;52.034;20.650;2022-11-04T04:24:34;7.70;99.90
28767;DHT22;15921;52.034;20.650;2022-11-04T04:27:19;7.70;99.90
28767;DHT22;15921;52.034;20.650;2022-11-04T04:30:06;7.70;99.90
28767;DHT22;15921;52.034;20.650;2022-11-04T04:32:40;7.80;99.90
28767;DHT22;15921;52.034;20.650;2022-11-04T04:35:09;7.80;99.90
28767;DHT22;15921;52.034;20.650;2022-11-04T04:37:56;7.70;99.90
28767;DHT22;15921;52.034;20.650;2022-11-04T04:40:49;7.70;99.90
28767;DHT22;15921;52.034;20.650;2022-11-04T04:43:36;7.70;99.90
28767;DHT22;15921;52.034;20.650;2022-11-04T04:46:22;7.60;99.90
28767;DHT22;15921;52.034;20.650;2022-11-04T04:48:48;7.60;99.90
28767;DHT22;15921;52.034;20.650;2022-11-04T04:51:14;7.60;99.90
28767;DHT22;15921;52.034;20.650;2022-11-04T04:53:40;7.60;99.90
28767;DHT22;15921;52.034;20.650;2022-11-04T04:56:05;7.60;99.90
28767;DHT22;15921;52.034;20.650;2022-11-04T04:58:31;7.60;99.90
28767;DHT22;15921;52.034;20.650;2022-11-04T05:00:57;7.60;99.90
28767;DHT22;15921;52.034;20.650;2022-11-04T05:03:23;7.60;99.90
28767;DHT22;15921;52.034;20.650;2022-11-04T05:05:49;7.60;99.90
28767;DHT22;15921;52.034;20.650;2022-11-04T05:08:15;7.60;99.90
28767;DHT22;15921;52.034;20.650;2022-11-04T05:10:40;7.70;99.90
28767;DHT22;15921;52.034;20.650;2022-11-04T05:13:06;7.70;99.90
28767;DHT22;15921;52.034;20.650;2022-11-04T05:15:50;7.70;99.90
28767;DHT22;15921;52.034;20.650;2022-11-04T05:18:16;7.70;99.90
28767;DHT22;15921;52.034;20.650;2022-11-04T05:20:42;7.60;99.90
28767;DHT22;15921;52.034;20.650;2022-11-04T05:23:08;7.60;99.90
28767;DHT22;15921;52.034;20.650;2022-11-04T05:25:37;7.70;99.90
28767;DHT22;15921;52.034;20.650;2022-11-04T05:28:04;7.70;99.90
28767;DHT22;15921;52.034;20.650;2022-11-04T05:30:31;7.70;99.90
28767;DHT22;15921;52.034;20.650;2022-11-04T05:32:56;7.70;99.90
28767;DHT22;15921;52.034;20.650;2022-11-04T05:35:22;7.80;99.90
28767;DHT22;15921;52.034;20.650;2022-11-04T05:37:48;7.80;99.90
28767;DHT22;15921;52.034;20.650;2022-11-04T05:40:14;7.80;99.90
28767;DHT22;15921;52.034;20.650;2022-11-04T05:42:40;7.70;99.90
28767;DHT22;15921;52.034;20.650;2022-11-04T05:45:06;7.70;99.90
28767;DHT22;15921;52.034;20.650;2022-11-04T05:47:32;7.80;99.90
28767;DHT22;15921;52.034;20.650;2022-11-04T05:49:58;7.80;99.90
28767;DHT22;15921;52.034;20.650;2022-11-04T05:52:23;7.80;99.90
28767;DHT22;15921;52.034;20.650;2022-11-04T05:54:49;7.80;99.90
28767;DHT22;15921;52.034;20.650;2022-11-04T05:57:15;7.80;99.90
28767;DHT22;15921;52.034;20.650;2022-11-04T05:59:41;7.80;99.90
28767;DHT22;15921;52.034;20.650;2022-11-04T06:02:06;7.80;99.90
28767;DHT22;15921;52.034;20.650;2022-11-04T06:04:32;7.80;99.90
28767;DHT22;15921;52.034;20.650;2022-11-04T06:06:58;7.80;99.90
28767;DHT22;15921;52.034;20.650;2022-11-04T06:09:24;7.90;99.90
28767;DHT22;15921;52.034;20.650;2022-11-04T06:12:13;7.90;99.90
28767;DHT22;15921;52.034;20.650;2022-11-04T06:14:40;8.00;99.90
28767;DHT22;15921;52.034;20.650;2022-11-04T06:17:06;8.00;99.90
28767;DHT22;15921;52.034;20.650;2022-11-04T06:19:32;8.00;99.90
28767;DHT22;15921;52.034;20.650;2022-11-04T06:21:58;8.10;99.90
28767;DHT22;15921;52.034;20.650;2022-11-04T06:24:24;8.10;99.90
28767;DHT22;15921;52.034;20.650;2022-11-04T06:26:50;8.20;99.90
28767;DHT22;15921;52.034;20.650;2022-11-04T06:29:16;8.20;99.90
28767;DHT22;15921;52.034;20.650;2022-11-04T06:31:41;8.30;99.90
28767;DHT22;15921;52.034;20.650;2022-11-04T06:34:07;8.30;99.90
28767;DHT22;15921;52.034;20.650;2022-11-04T06:36:33;8.30;99.90
28767;DHT22;15921;52.034;20.650;2022-11-04T06:38:59;8.30;99.90
28767;DHT22;15921;52.034;20.650;2022-11-04T06:41:24;8.30;99.90
28767;DHT22;15921;52.034;20.650;2022-11-04T06:43:50;8.40;99.90
28767;DHT22;15921;52.034;20.650;2022-11-04T06:46:38;8.40;99.90
28767;DHT22;15921;52.034;20.650;2022-11-04T06:49:05;8.40;99.90
28767;DHT22;15921;52.034;20.650;2022-11-04T06:51:32;8.50;99.90
28767;DHT22;15921;52.034;20.650;2022-11-04T06:53:58;8.50;99.90
28767;DHT22;15921;52.034;20.650;2022-11-04T06:56:24;8.60;99.90
28767;DHT22;15921;52.034;20.650;2022-11-04T06:58:51;8.60;99.90
28767;DHT22;15921;52.034;20.650;2022-11-04T07:01:18;8.70;99.90
28767;DHT22;15921;52.034;20.650;2022-11-04T07:03:51;8.70;99.90
28767;DHT22;15921;52.034;20.650;2022-11-04T07:06:18;8.70;99.90
28767;DHT22;15921;52.034;20.650;2022-11-04T07:08:44;8.80;99.90
28767;DHT22;15921;52.034;20.650;2022-11-04T07:11:10;8.80;99.90
28767;DHT22;15921;52.034;20.650;2022-11-04T07:13:36;8.80;99.90
28767;DHT22;15921;52.034;20.650;2022-11-04T07:16:05;8.90;99.90
28767;DHT22;15921;52.034;20.650;2022-11-04T07:18:31;8.90;99.90
28767;DHT22;15921;52.034;20.650;2022-11-04T07:20:58;9.00;99.90
28767;DHT22;15921;52.034;20.650;2022-11-04T07:23:24;9.00;99.90
28767;DHT22;15921;52.034;20.650;2022-11-04T07:25:49;9.00;99.90
28767;DHT22;15921;52.034;20.650;2022-11-04T07:28:16;9.00;99.90
28767;DHT22;15921;52.034;20.650;2022-11-04T07:30:41;8.90;99.90
28767;DHT22;15921;52.034;20.650;2022-11-04T07:33:07;9.00;99.90
28767;DHT22;15921;52.034;20.650;2022-11-04T07:35:34;9.00;99.90
28767;DHT22;15921;52.034;20.650;2022-11-04T07:38:00;9.00;99.90
28767;DHT22;15921;52.034;20.650;2022-11-04T07:40:28;9.10;99.90
28767;DHT22;15921;52.034;20.650;2022-11-04T07:42:54;9.00;99.90
28767;DHT22;15921;52.034;20.650;2022-11-04T07:45:20;9.10;99.90
28767;DHT22;15921;52.034;20.650;2022-11-04T07:47:45;9.20;99.90
28767;DHT22;15921;52.034;20.650;2022-11-04T07:50:11;9.30;99.90
28767;DHT22;15921;52.034;20.650;2022-11-04T07:52:38;9.20;99.90
28767;DHT22;15921;52.034;20.650;2022-11-04T07:55:04;9.20;99.90
28767;DHT22;15921;52.034;20.650;2022-11-04T07:57:30;9.20;99.90
28767;DHT22;15921;52.034;20.650;2022-11-04T07:59:56;9.20;99.90
28767;DHT22;15921;52.034;20.650;2022-11-04T08:02:21;9.20;99.90
28767;DHT22;15921;52.034;20.650;2022-11-04T08:04:47;9.30;99.90
28767;DHT22;15921;52.034;20.650;2022-11-04T08:07:13;9.30;99.90
28767;DHT22;15921;52.034;20.650;2022-11-04T08:09:39;9.40;99.90
28767;DHT22;15921;52.034;20.650;2022-11-04T08:12:05;9.50;99.90
28767;DHT22;15921;52.034;20.650;2022-11-04T08:14:31;9.50;99.90
28767;DHT22;15921;52.034;20.650;2022-11-04T08:16:56;9.70;99.90
28767;DHT22;15921;52.034;20.650;2022-11-04T08:19:22;9.70;99.90
28767;DHT22;15921;52.034;20.650;2022-11-04T08:21:48;9.80;99.90
28767;DHT22;15921;52.034;20.650;2022-11-04T08:24:14;10.00;99.90
28767;DHT22;15921;52.034;20.650;2022-11-04T08:26:39;10.10;99.90
28767;DHT22;15921;52.034;20.650;2022-11-04T08:29:07;10.30;99.90
28767;DHT22;15921;52.034;20.650;2022-11-04T08:31:33;10.30;99.90
28767;DHT22;15921;52.034;20.650;2022-11-04T08:33:59;10.40;99.90
28767;DHT22;15921;52.034;20.650;2022-11-04T08:36:31;10.60;99.90
28767;DHT22;15921;52.034;20.650;2022-11-04T08:38:58;10.70;99.90
28767;DHT22;15921;52.034;20.650;2022-11-04T08:41:26;10.70;99.90
28767;DHT22;15921;52.034;20.650;2022-11-04T08:43:55;10.80;99.90
28767;DHT22;15921;52.034;20.650;2022-11-04T08:46:21;10.80;99.90
28767;DHT22;15921;52.034;20.650;2022-11-04T08:48:47;10.90;99.90
28767;DHT22;15921;52.034;20.650;2022-11-04T08:51:22;11.10;99.90
28767;DHT22;15921;52.034;20.650;2022-11-04T08:53:49;11.20;99.90
28767;DHT22;15921;52.034;20.650;2022-11-04T08:56:21;11.30;99.90
28767;DHT22;15921;52.034;20.650;2022-11-04T08:58:48;11.40;99.90
28767;DHT22;15921;52.034;20.650;2022-11-04T09:01:15;11.50;99.90
28767;DHT22;15921;52.034;20.650;2022-11-04T09:03:41;11.60;99.90
28767;DHT22;15921;52.034;20.650;2022-11-04T09:06:10;11.60;99.90
28767;DHT22;15921;52.034;20.650;2022-11-04T09:08:37;11.70;99.90
28767;DHT22;15921;52.034;20.650;2022-11-04T09:11:07;11.70;99.90
28767;DHT22;15921;52.034;20.650;2022-11-04T09:13:34;11.80;99.90
28767;DHT22;15921;52.034;20.650;2022-11-04T09:16:00;11.70;99.90
28767;DHT22;15921;52.034;20.650;2022-11-04T09:18:26;11.70;99.90
28767;DHT22;15921;52.034;20.650;2022-11-04T09:20:51;11.60;99.90
28767;DHT22;15921;52.034;20.650;2022-11-04T09:23:17;11.60;99.90
28767;DHT22;15921;52.034;20.650;2022-11-04T09:25:43;11.60;99.90
28767;DHT22;15921;52.034;20.650;2022-11-04T09:28:08;11.60;99.90
28767;DHT22;15921;52.034;20.650;2022-11-04T09:30:35;11.60;99.90
28767;DHT22;15921;52.034;20.650;2022-11-04T09:33:01;11.60;99.90
28767;DHT22;15921;52.034;20.650;2022-11-04T09:35:27;11.70;99.90
28767;DHT22;15921;52.034;20.650;2022-11-04T09:37:53;11.80;99.90
28767;DHT22;15921;52.034;20.650;2022-11-04T09:40:22;11.80;99.90
28767;DHT22;15921;52.034;20.650;2022-11-04T09:45:41;11.90;99.90
28767;DHT22;15921;52.034;20.650;2022-11-04T09:48:18;11.80;99.90
28767;DHT22;15921;52.034;20.650;2022-11-04T09:50:50;11.80;99.90
28767;DHT22;15921;52.034;20.650;2022-11-04T09:53:21;11.80;99.90
28767;DHT22;15921;52.034;20.650;2022-11-04T09:55:55;11.90;99.90
28767;DHT22;15921;52.034;20.650;2022-11-04T09:58:22;11.90;99.90
28767;DHT22;15921;52.034;20.650;2022-11-04T10:00:57;12.00;99.90
28767;DHT22;15921;52.034;20.650;2022-11-04T10:03:36;12.10;99.90
28767;DHT22;15921;52.034;20.650;2022-11-04T10:25:03;12.60;99.90
28767;DHT22;15921;52.034;20.650;2022-11-04T10:27:36;12.70;99.90
28767;DHT22;15921;52.034;20.650;2022-11-04T10:30:21;12.80;99.90
28767;DHT22;15921;52.034;20.650;2022-11-04T10:35:59;12.80;99.90
28767;DHT22;15921;52.034;20.650;2022-11-04T10:38:44;13.00;99.90
28767;DHT22;15921;52.034;20.650;2022-11-04T10:41:36;13.10;99.90
28767;DHT22;15921;52.034;20.650;2022-11-04T10:51:44;13.20;99.90
28767;DHT22;15921;52.034;20.650;2022-11-04T10:54:10;13.50;99.90
28767;DHT22;15921;52.034;20.650;2022-11-04T10:56:41;13.90;99.90
28767;DHT22;15921;52.034;20.650;2022-11-04T11:01:51;14.60;99.90
28767;DHT22;15921;52.034;20.650;2022-11-04T11:04:36;14.70;99.90
28767;DHT22;15921;52.034;20.650;2022-11-04T11:07:05;14.90;98.90
28767;DHT22;15921;52.034;20.650;2022-11-04T11:09:36;15.00;99.20
28767;DHT22;15921;52.034;20.650;2022-11-04T11:14:40;15.00;98.10
28767;DHT22;15921;52.034;20.650;2022-11-04T11:17:19;15.10;97.30
28767;DHT22;15921;52.034;20.650;2022-11-04T11:20:21;15.00;97.40
28767;DHT22;15921;52.034;20.650;2022-11-04T11:22:49;15.20;96.30
28767;DHT22;15921;52.034;20.650;2022-11-04T11:25:49;15.40;96.20
28767;DHT22;15921;52.034;20.650;2022-11-04T11:28:23;16.20;94.20
28767;DHT22;15921;52.034;20.650;2022-11-04T11:33:25;18.60;90.40
28767;DHT22;15921;52.034;20.650;2022-11-04T11:36:01;19.40;85.60
28767;DHT22;15921;52.034;20.650;2022-11-04T11:38:31;20.20;81.80
28767;DHT22;15921;52.034;20.650;2022-11-04T11:41:12;21.00;78.20
28767;DHT22;15921;52.034;20.650;2022-11-04T11:43:50;21.60;74.30
28767;DHT22;15921;52.034;20.650;2022-11-04T11:46:36;22.00;72.50
28767;DHT22;15921;52.034;20.650;2022-11-04T11:49:03;21.90;69.70
28767;DHT22;15921;52.034;20.650;2022-11-04T11:51:31;22.00;71.00
28767;DHT22;15921;52.034;20.650;2022-11-04T11:54:14;22.50;68.90
28767;DHT22;15921;52.034;20.650;2022-11-04T11:56:42;22.60;66.90
28767;DHT22;15921;52.034;20.650;2022-11-04T11:59:44;22.80;66.70
28767;DHT22;15921;52.034;20.650;2022-11-04T12:02:33;22.70;65.20
28767;DHT22;15921;52.034;20.650;2022-11-04T12:05:01;22.80;64.70
28767;DHT22;15921;52.034;20.650;2022-11-04T12:10:35;22.20;65.20
28767;DHT22;15921;52.034;20.650;2022-11-04T12:13:34;21.30;66.50
28767;DHT22;15921;52.034;20.650;2022-11-04T12:21:46;18.40;74.60
28767;DHT22;15921;52.034;20.650;2022-11-04T12:25:07;17.80;76.30
28767;DHT22;15921;52.034;20.650;2022-11-04T12:40:42;15.70;83.90
28767;DHT22;15921;52.034;20.650;2022-11-04T12:49:04;15.30;86.40
28767;DHT22;15921;52.034;20.650;2022-11-04T12:52:02;15.20;87.10
28767;DHT22;15921;52.034;20.650;2022-11-04T13:02:31;14.90;89.80
28767;DHT22;15921;52.034;20.650;2022-11-04T13:08:19;14.90;90.30
28767;DHT22;15921;52.034;20.650;2022-11-04T13:10:58;14.80;90.80
28767;DHT22;15921;52.034;20.650;2022-11-04T13:13:30;14.80;90.70
28767;DHT22;15921;52.034;20.650;2022-11-04T13:16:01;14.80;91.00
28767;DHT22;15921;52.034;20.650;2022-11-04T13:18:31;14.70;91.20
28767;DHT22;15921;52.034;20.650;2022-11-04T13:21:18;14.70;91.40
28767;DHT22;15921;52.034;20.650;2022-11-04T13:24:03;14.60;91.60
28767;DHT22;15921;52.034;20.650;2022-11-04T13:26:31;14.50;91.90
28767;DHT22;15921;52.034;20.650;2022-11-04T13:29:06;14.40;92.20
28767;DHT22;15921;52.034;20.650;2022-11-04T13:34:36;14.10;92.80
28767;DHT22;15921;52.034;20.650;2022-11-04T13:37:31;14.00;93.20
28767;DHT22;15921;52.034;20.650;2022-11-04T13:40:10;13.90;93.40
28767;DHT22;15921;52.034;20.650;2022-11-04T13:45:51;13.70;93.90
28767;DHT22;15921;52.034;20.650;2022-11-04T13:48:22;13.60;94.20
28767;DHT22;15921;52.034;20.650;2022-11-04T13:51:07;13.40;94.20
28767;DHT22;15921;52.034;20.650;2022-11-04T13:53:45;13.30;94.70
28767;DHT22;15921;52.034;20.650;2022-11-04T13:56:32;13.20;94.90
28767;DHT22;15921;52.034;20.650;2022-11-04T13:59:27;13.10;95.10
28767;DHT22;15921;52.034;20.650;2022-11-04T14:04:40;13.00;95.40
28767;DHT22;15921;52.034;20.650;2022-11-04T14:07:09;12.90;95.50
28767;DHT22;15921;52.034;20.650;2022-11-04T14:14:41;12.70;96.00
28767;DHT22;15921;52.034;20.650;2022-11-04T14:25:19;12.40;96.80
28767;DHT22;15921;52.034;20.650;2022-11-04T14:27:54;12.40;96.90
28767;DHT22;15921;52.034;20.650;2022-11-04T14:30:33;12.30;96.90
28767;DHT22;15921;52.034;20.650;2022-11-04T14:33:02;12.30;97.00
28767;DHT22;15921;52.034;20.650;2022-11-04T14:35:29;12.30;97.00
28767;DHT22;15921;52.034;20.650;2022-11-04T14:37:56;12.30;96.90
28767;DHT22;15921;52.034;20.650;2022-11-04T14:40:42;12.20;97.00
28767;DHT22;15921;52.034;20.650;2022-11-04T14:43:32;12.20;97.00
28767;DHT22;15921;52.034;20.650;2022-11-04T14:46:00;12.20;97.00
28767;DHT22;15921;52.034;20.650;2022-11-04T14:48:27;12.20;97.10
28767;DHT22;15921;52.034;20.650;2022-11-04T14:50:55;12.10;97.10
28767;DHT22;15921;52.034;20.650;2022-11-04T14:53:32;12.10;97.20
28767;DHT22;15921;52.034;20.650;2022-11-04T14:56:15;12.10;97.20
28767;DHT22;15921;52.034;20.650;2022-11-04T15:01:24;12.10;97.30
28767;DHT22;15921;52.034;20.650;2022-11-04T15:03:51;12.10;97.40
28767;DHT22;15921;52.034;20.650;2022-11-04T15:06:26;12.10;97.60
28767;DHT22;15921;52.034;20.650;2022-11-04T15:08:54;12.10;97.70
28767;DHT22;15921;52.034;20.650;2022-11-04T15:11:23;12.00;97.60
28767;DHT22;15921;52.034;20.650;2022-11-04T15:14:22;12.00;97.80
28767;DHT22;15921;52.034;20.650;2022-11-04T15:16:58;12.00;97.90
28767;DHT22;15921;52.034;20.650;2022-11-04T15:19:30;12.00;98.00
28767;DHT22;15921;52.034;20.650;2022-11-04T15:22:01;12.00;98.10
28767;DHT22;15921;52.034;20.650;2022-11-04T15:24:27;12.00;98.20
28767;DHT22;15921;52.034;20.650;2022-11-04T15:26:59;11.90;98.30
28767;DHT22;15921;52.034;20.650;2022-11-04T15:29:25;12.00;98.50
28767;DHT22;15921;52.034;20.650;2022-11-04T15:32:00;11.90;98.60
28767;DHT22;15921;52.034;20.650;2022-11-04T15:34:28;11.90;98.70
28767;DHT22;15921;52.034;20.650;2022-11-04T15:36:57;11.90;98.80
28767;DHT22;15921;52.034;20.650;2022-11-04T15:41:59;11.90;98.90
28767;DHT22;15921;52.034;20.650;2022-11-04T15:44:48;11.80;99.00
28767;DHT22;15921;52.034;20.650;2022-11-04T15:49:44;11.80;99.30
28767;DHT22;15921;52.034;20.650;2022-11-04T15:52:22;11.80;99.30
28767;DHT22;15921;52.034;20.650;2022-11-04T15:54:51;11.80;99.40
28767;DHT22;15921;52.034;20.650;2022-11-04T15:57:26;11.80;99.40
28767;DHT22;15921;52.034;20.650;2022-11-04T16:00:19;11.80;99.40
28767;DHT22;15921;52.034;20.650;2022-11-04T16:02:52;11.80;99.50
28767;DHT22;15921;52.034;20.650;2022-11-04T16:05:33;11.70;99.70
28767;DHT22;15921;52.034;20.650;2022-11-04T16:08:22;11.70;99.70
28767;DHT22;15921;52.034;20.650;2022-11-04T16:11:06;11.60;99.60
28767;DHT22;15921;52.034;20.650;2022-11-04T16:13:32;11.60;99.80
28767;DHT22;15921;52.034;20.650;2022-11-04T16:20:55;11.60;99.90
28767;DHT22;15921;52.034;20.650;2022-11-04T16:23:24;11.60;99.80
28767;DHT22;15921;52.034;20.650;2022-11-04T16:26:02;11.60;99.80
28767;DHT22;15921;52.034;20.650;2022-11-04T16:28:34;11.60;99.90
28767;DHT22;15921;52.034;20.650;2022-11-04T16:31:05;11.60;99.90
28767;DHT22;15921;52.034;20.650;2022-11-04T16:33:31;11.60;99.90
28767;DHT22;15921;52.034;20.650;2022-11-04T16:35:56;11.50;99.80
28767;DHT22;15921;52.034;20.650;2022-11-04T16:38:22;11.50;99.80
28767;DHT22;15921;52.034;20.650;2022-11-04T16:40:48;11.60;99.90
28767;DHT22;15921;52.034;20.650;2022-11-04T16:43:17;11.50;99.90
28767;DHT22;15921;52.034;20.650;2022-11-04T16:45:46;11.50;99.90
28767;DHT22;15921;52.034;20.650;2022-11-04T16:48:16;11.50;99.90
28767;DHT22;15921;52.034;20.650;2022-11-04T16:50:43;11.50;99.90
28767;DHT22;15921;52.034;20.650;2022-11-04T16:53:09;11.40;99.90
28767;DHT22;15921;52.034;20.650;2022-11-04T16:55:39;11.40;99.90
28767;DHT22;15921;52.034;20.650;2022-11-04T16:58:05;11.40;99.90
28767;DHT22;15921;52.034;20.650;2022-11-04T17:00:32;11.40;99.90
28767;DHT22;15921;52.034;20.650;2022-11-04T17:03:10;11.40;99.90
28767;DHT22;15921;52.034;20.650;2022-11-04T17:05:37;11.40;99.90
28767;DHT22;15921;52.034;20.650;2022-11-04T17:08:02;11.30;99.90
28767;DHT22;15921;52.034;20.650;2022-11-04T17:10:28;11.30;99.90
28767;DHT22;15921;52.034;20.650;2022-11-04T17:12:54;11.20;99.90
28767;DHT22;15921;52.034;20.650;2022-11-04T17:15:20;11.20;99.90
28767;DHT22;15921;52.034;20.650;2022-11-04T17:17:47;11.20;99.90
28767;DHT22;15921;52.034;20.650;2022-11-04T17:20:14;11.20;99.90
28767;DHT22;15921;52.034;20.650;2022-11-04T17:22:42;11.20;99.90
28767;DHT22;15921;52.034;20.650;2022-11-04T17:25:20;11.10;99.90
28767;DHT22;15921;52.034;20.650;2022-11-04T17:27:47;11.10;99.90
28767;DHT22;15921;52.034;20.650;2022-11-04T17:30:14;11.10;99.90
28767;DHT22;15921;52.034;20.650;2022-11-04T17:32:41;11.10;99.90
28767;DHT22;15921;52.034;20.650;2022-11-04T17:35:07;11.10;99.90
28767;DHT22;15921;52.034;20.650;2022-11-04T17:37:33;11.10;99.90
28767;DHT22;15921;52.034;20.650;2022-11-04T17:39:59;11.10;99.90
28767;DHT22;15921;52.034;20.650;2022-11-04T17:42:25;11.10;99.90
28767;DHT22;15921;52.034;20.650;2022-11-04T17:45:09;11.10;99.90
28767;DHT22;15921;52.034;20.650;2022-11-04T17:47:36;11.10;99.90
28767;DHT22;15921;52.034;20.650;2022-11-04T17:50:03;11.10;99.90
28767;DHT22;15921;52.034;20.650;2022-11-04T17:52:30;11.10;99.90
28767;DHT22;15921;52.034;20.650;2022-11-04T17:54:55;11.10;99.90
28767;DHT22;15921;52.034;20.650;2022-11-04T17:57:21;11.10;99.90
28767;DHT22;15921;52.034;20.650;2022-11-04T17:59:47;11.20;99.90
28767;DHT22;15921;52.034;20.650;2022-11-04T18:02:12;11.20;99.90
28767;DHT22;15921;52.034;20.650;2022-11-04T18:04:38;11.20;99.90
28767;DHT22;15921;52.034;20.650;2022-11-04T18:07:04;11.20;99.90
28767;DHT22;15921;52.034;20.650;2022-11-04T18:09:30;11.20;99.90
28767;DHT22;15921;52.034;20.650;2022-11-04T18:11:58;11.20;99.90
28767;DHT22;15921;52.034;20.650;2022-11-04T18:14:42;11.20;99.90
28767;DHT22;15921;52.034;20.650;2022-11-04T18:17:08;11.20;99.90
28767;DHT22;15921;52.034;20.650;2022-11-04T18:19:33;11.20;99.90
28767;DHT22;15921;52.034;20.650;2022-11-04T18:21:59;11.20;99.90
28767;DHT22;15921;52.034;20.650;2022-11-04T18:24:25;11.20;99.90
28767;DHT22;15921;52.034;20.650;2022-11-04T18:26:51;11.20;99.90
28767;DHT22;15921;52.034;20.650;2022-11-04T18:29:17;11.20;99.90
28767;DHT22;15921;52.034;20.650;2022-11-04T18:31:43;11.30;99.90